Terminal Aerodrome Forecast
Issued by NWS Atlanta, GA

Home | Current Version | Previous Version | Text Only | Print | Product List | Glossary On
Versions: 1 2 3 4 5 6 7 8 9 10 11 12 13 14 15 16 17 18 19 20 21 22 23 24 25 26 27 28 29 30 31 32 33 34 35 36 37 38
327
FTAK31 PAJN 240535
TAFAHN
TAF
PAHN 240535Z 2406/2506 11010KT P6SM -RA FEW012 SCT025 OVC060
      TEMPO 2406/2410 08012G20KT 3SM -RA BR FEW006 BKN012 OVC040
     FM241000 13010G15KT 3SM -SHRA SCT006 BKN012 OVC025
     FM241500 09010KT 6SM -SHRA SCT010 BKN015 OVC035
     FM242100 12015G25KT 4SM -SHRA SCT015 OVC025
      AMD LTD TO CLD VIS AND WIND=

USA.gov is the U.S. government's official web portal to all federal, state and local government web resources and services.